.
WxDataArchive / Data Records for 2012-05-14
2012-05-13 May 2012 2012-05-15

Data Records for Monday, 14 May 2012

Time	Temp	Chill	HIndex	Humid	Dewpt	 Wind 	HiWind	WindDir	Rain 	Barom 
-----	----	-----	------	-----	-----	------	------	-------	-----	----- 
00:00	59.5	59.5	59.5	71	50.1	0	0	---	0.00	30.085 
00:05	59.3	59.3	59.3	72	50.3	0	0	---	0.00	30.085 
00:10	59.0	59.0	59.0	72	50.0	0	0	---	0.00	30.085 
00:15	58.9	58.9	58.9	73	50.3	0	0	---	0.00	30.078 
00:20	58.6	58.6	58.6	74	50.3	0	0	---	0.00	30.078 
00:25	58.4	58.4	58.4	75	50.5	0	0	---	0.00	30.078 
00:30	58.1	58.1	58.1	76	50.6	0	0	---	0.00	30.078 
00:35	57.8	57.8	57.8	76	50.3	0	0	---	0.00	30.078 
00:40	57.6	57.6	57.6	77	50.4	0	0	---	0.00	30.078 
00:45	57.5	57.5	57.5	77	50.3	0	0	---	0.00	30.078 
00:50	57.2	57.2	57.2	78	50.4	0	0	---	0.00	30.078 
00:55	57.0	57.0	57.0	79	50.5	0	0	---	0.00	30.078 
01:00	56.9	56.9	56.9	80	50.8	0	0	---	0.00	30.079 
01:05	56.7	56.7	56.7	81	50.9	0	0	---	0.00	30.079 
01:10	56.7	56.7	56.7	81	50.9	0	0	---	0.00	30.079 
01:15	56.5	56.5	56.5	82	51.1	0	0	---	0.00	30.076 
01:20	56.3	56.3	56.3	82	50.9	0	0	---	0.00	30.076 
01:25	56.2	56.2	56.2	82	50.8	0	0	---	0.00	30.076 
01:30	56.0	56.0	56.0	83	50.9	0	0	---	0.00	30.075 
01:35	55.9	55.9	55.9	83	50.8	0	0	---	0.00	30.075 
01:40	55.7	55.7	55.7	84	50.9	0	0	---	0.00	30.075 
01:45	55.6	55.6	55.6	84	50.8	0	0	---	0.00	30.072 
01:50	55.4	55.4	55.4	84	50.6	0	0	---	0.00	30.072 
01:55	55.1	55.1	55.1	84	50.4	0	0	---	0.00	30.072 
02:00	55.1	55.1	55.1	85	50.7	0	0	---	0.00	30.068 
02:05	55.0	55.0	55.0	86	50.9	0	0	---	0.00	30.068 
02:10	54.8	54.8	54.8	86	50.7	0	0	---	0.00	30.068 
02:15	54.7	54.7	54.7	86	50.6	0	0	---	0.00	30.062 
02:20	54.5	54.5	54.5	86	50.4	0	0	---	0.00	30.062 
02:25	54.4	54.4	54.4	87	50.6	0	0	---	0.00	30.062 
02:30	54.2	54.2	54.2	87	50.4	0	0	---	0.00	30.060 
02:35	54.1	54.1	54.1	87	50.3	0	0	---	0.00	30.060 
02:40	53.9	53.9	53.9	87	50.1	0	0	---	0.00	30.060 
02:45	53.8	53.8	53.8	88	50.3	0	0	---	0.00	30.059 
02:50	53.6	53.6	53.6	88	50.1	0	0	---	0.00	30.059 
02:55	53.5	53.5	53.5	88	50.0	0	0	---	0.00	30.059 
03:00	53.3	53.3	53.3	88	49.8	0	0	---	0.00	30.060 
03:05	53.2	53.2	53.2	88	49.7	0	0	---	0.00	30.060 
03:10	53.1	53.1	53.1	89	49.9	0	0	---	0.00	30.060 
03:15	52.9	52.9	52.9	89	49.7	0	0	---	0.00	30.057 
03:20	52.9	52.9	52.9	89	49.7	0	0	---	0.00	30.057 
03:25	52.8	52.8	52.8	89	49.6	0	0	---	0.00	30.057 
03:30	52.6	52.6	52.6	89	49.4	0	0	---	0.00	30.057 
03:35	52.5	52.5	52.5	90	49.7	0	0	---	0.00	30.057 
03:40	52.5	52.5	52.5	90	49.7	0	0	---	0.00	30.057 
03:45	52.3	52.3	52.3	90	49.5	0	0	---	0.00	30.059 
03:50	52.3	52.3	52.3	90	49.5	0	0	---	0.00	30.059 
03:55	52.2	52.2	52.2	90	49.4	0	0	---	0.00	30.059 
04:00	52.0	52.0	52.0	90	49.2	0	0	---	0.00	30.059 
04:05	52.2	52.2	52.2	91	49.7	0	0	---	0.00	30.059 
04:10	52.0	52.0	52.0	91	49.5	0	0	---	0.00	30.059 
04:15	52.2	52.2	52.2	91	49.7	0	0	---	0.00	30.062 
04:20	52.0	52.0	52.0	91	49.5	0	0	---	0.00	30.062 
04:25	51.9	51.9	51.9	91	49.4	0	0	---	0.00	30.062 
04:30	51.9	51.9	51.9	92	49.6	0	0	---	0.00	30.061 
04:35	51.7	51.7	51.7	92	49.5	0	0	---	0.00	30.061 
04:40	51.6	51.6	51.6	92	49.4	0	0	---	0.00	30.061 
04:45	51.6	51.6	51.6	92	49.4	0	0	---	0.00	30.056 
04:50	51.6	51.6	51.6	92	49.4	0	0	---	0.00	30.056 
04:55	51.4	51.4	51.4	92	49.2	0	0	---	0.00	30.056 
05:00	51.3	51.3	51.3	92	49.1	0	0	---	0.00	30.057 
05:05	51.3	51.3	51.3	92	49.1	0	0	---	0.00	30.057 
05:10	51.1	51.1	51.1	92	48.9	0	0	---	0.00	30.057 
05:15	51.0	51.0	51.0	92	48.8	0	0	---	0.00	30.057 
05:20	51.0	51.0	51.0	92	48.8	0	0	---	0.00	30.057 
05:25	50.8	50.8	50.8	92	48.6	0	0	---	0.00	30.057 
05:30	50.8	50.8	50.8	92	48.6	0	0	---	0.00	30.053 
05:35	50.8	50.8	50.8	92	48.6	0	0	---	0.00	30.053 
05:40	50.7	50.7	50.7	92	48.5	0	0	---	0.00	30.053 
05:45	50.5	50.5	50.5	92	48.3	0	0	---	0.00	30.053 
05:50	50.5	50.5	50.5	92	48.3	0	0	---	0.00	30.053 
05:55	50.5	50.5	50.5	93	48.6	0	0	---	0.00	30.053 
06:00	50.5	50.5	50.5	93	48.6	0	0	---	0.00	30.054 
06:05	50.4	50.4	50.4	93	48.5	0	0	---	0.00	30.054 
06:10	50.4	50.4	50.4	93	48.5	0	0	---	0.00	30.054 
06:15	50.4	50.4	50.4	93	48.5	0	0	---	0.00	30.059 
06:20	50.4	50.4	50.4	93	48.5	0	0	---	0.00	30.059 
06:25	50.2	50.2	50.2	93	48.3	0	0	---	0.00	30.059 
06:30	50.2	50.2	50.2	93	48.3	0	0	---	0.00	30.061 
06:35	50.1	50.1	50.1	93	48.2	0	0	---	0.00	30.061 
06:40	50.1	50.1	50.1	93	48.2	0	0	---	0.00	30.061 
06:45	50.2	50.2	50.2	93	48.3	0	0	---	0.00	30.065 
06:50	50.2	50.2	50.2	93	48.3	0	0	---	0.00	30.065 
06:55	50.2	50.2	50.2	93	48.3	0	0	---	0.00	30.065 
07:00	50.2	50.2	50.2	93	48.3	0	0	---	0.00	30.066 
07:05	50.4	50.4	50.4	94	48.7	0	0	---	0.00	30.066 
07:10	50.5	50.5	50.5	94	48.8	0	0	---	0.00	30.066 
07:15	50.7	50.7	50.7	94	49.0	0	0	---	0.00	30.070 
07:20	51.0	51.0	51.0	94	49.3	0	0	---	0.00	30.070 
07:25	51.4	51.4	51.4	94	49.7	0	0	---	0.00	30.070 
07:30	51.9	51.9	51.9	94	50.2	0	0	---	0.00	30.074 
07:35	52.3	52.3	52.3	94	50.6	0	0	---	0.00	30.074 
07:40	53.1	53.1	53.1	95	51.7	0	0	---	0.00	30.074 
07:45	53.5	53.5	53.5	95	52.1	0	0	---	0.00	30.077 
07:50	54.2	54.2	54.2	94	52.5	0	1	112	0.00	30.077 
07:55	54.7	54.7	54.7	94	53.0	0	1	112	0.00	30.077 
08:00	55.3	55.3	55.3	93	53.3	0	2	112	0.00	30.079 
08:05	55.9	55.9	55.9	91	53.3	0	1	112	0.00	30.079 
08:10	56.5	56.5	56.5	89	53.3	0	1	112	0.00	30.079 
08:15	57.0	57.0	57.0	87	53.2	0	2	112	0.00	30.080 
08:20	57.6	57.6	57.6	85	53.1	0	3	112	0.00	30.080 
08:25	58.4	58.4	58.4	83	53.3	0	3	112	0.00	30.080 
08:30	59.0	59.0	59.0	80	52.8	1	2	112	0.00	30.082 
08:35	59.5	59.5	59.5	79	53.0	0	1	112	0.00	30.082 
08:40	60.1	60.1	60.1	77	52.9	0	1	112	0.00	30.082 
08:45	60.2	60.2	60.2	75	52.2	0	2	112	0.00	30.078 
08:50	60.7	60.7	60.7	74	52.4	0	3	112	0.00	30.078 
08:55	61.3	61.3	61.3	73	52.6	0	2	112	0.00	30.078 
09:00	62.1	62.1	62.1	73	53.3	1	4	112	0.00	30.077 
09:05	62.4	62.4	62.4	70	52.5	1	4	112	0.00	30.077 
09:10	62.9	62.9	62.9	71	53.3	0	2	112	0.00	30.077 
09:15	63.5	63.5	63.5	71	53.9	0	1	112	0.00	30.079 
09:20	64.0	64.0	64.0	68	53.2	0	1	112	0.00	30.079 
09:25	64.5	64.5	64.5	68	53.7	0	2	112	0.00	30.079 
09:30	65.0	65.0	65.0	65	52.9	1	5	112	0.00	30.078 
09:35	65.0	65.0	65.0	67	53.8	2	4	112	0.00	30.078 
09:40	65.0	65.0	65.0	65	52.9	2	5	112	0.00	30.078 
09:45	65.2	65.2	65.2	67	54.0	1	3	112	0.00	30.078 
09:50	65.6	65.6	65.6	68	54.7	0	2	112	0.00	30.078 
09:55	66.1	66.1	66.1	65	54.0	1	4	112	0.00	30.078 
10:00	66.4	66.4	66.4	64	53.8	0	3	112	0.00	30.076 
10:05	67.1	67.1	67.1	62	53.6	0	3	112	0.00	30.076 
10:10	67.6	67.6	67.6	62	54.1	1	3	112	0.00	30.076 
10:15	68.1	68.1	68.1	60	53.7	0	2	112	0.00	30.075 
10:20	68.6	68.6	68.6	61	54.6	1	3	112	0.00	30.075 
10:25	68.8	68.8	68.8	60	54.3	2	5	112	0.00	30.075 
10:30	68.9	68.9	68.9	58	53.5	1	5	112	0.00	30.073 
10:35	69.3	69.3	69.3	59	54.3	1	4	135	0.00	30.073 
10:40	69.9	69.9	69.9	58	54.4	0	3	112	0.00	30.073 
10:45	69.9	69.9	69.9	56	53.5	0	4	112	0.00	30.072 
10:50	69.8	69.8	69.8	57	53.9	0	2	112	0.00	30.072 
10:55	70.1	70.1	70.1	57	54.1	0	3	45	0.00	30.072 
11:00	70.3	70.3	70.3	57	54.3	1	3	68	0.00	30.072 
11:05	70.6	70.6	70.6	56	54.1	1	4	135	0.00	30.072 
11:10	70.8	70.8	70.8	55	53.8	2	5	112	0.00	30.072 
11:15	70.9	70.9	70.9	56	54.4	0	3	112	0.00	30.074 
11:20	70.9	70.9	70.9	54	53.4	1	3	22	0.00	30.074 
11:25	71.3	71.3	71.3	53	53.3	1	4	202	0.00	30.074 
11:30	71.5	71.5	71.5	52	52.9	1	4	112	0.00	30.073 
11:35	72.1	72.1	72.1	54	54.5	0	3	112	0.00	30.073 
11:40	72.8	72.8	72.8	52	54.1	0	2	112	0.00	30.073 
11:45	72.5	72.5	72.5	50	52.8	1	3	270	0.00	30.067 
11:50	72.0	72.0	72.0	51	52.9	1	5	270	0.00	30.067 
11:55	71.8	71.8	71.8	53	53.7	1	3	180	0.00	30.067 
12:00	72.0	72.0	72.0	49	51.8	0	2	180	0.00	30.066 
12:05	72.3	72.3	72.3	50	52.6	0	2	225	0.00	30.066 
12:10	72.1	72.1	72.1	50	52.4	1	2	202	0.00	30.066 
12:15	71.8	71.8	71.8	49	51.6	1	4	202	0.00	30.066 
12:20	72.0	72.0	72.0	53	53.9	1	4	112	0.00	30.066 
12:25	72.3	72.3	72.3	50	52.6	1	3	338	0.00	30.066 
12:30	72.8	72.8	72.8	48	52.0	1	4	68	0.00	30.062 
12:35	73.0	73.0	73.0	49	52.7	0	2	68	0.00	30.062 
12:40	72.8	72.8	72.8	51	53.6	1	3	90	0.00	30.062 
12:45	73.0	73.0	73.0	47	51.6	1	3	90	0.00	30.060 
12:50	73.5	73.5	73.5	48	52.6	1	3	90	0.00	30.060 
12:55	73.3	73.3	73.3	47	51.8	0	2	90	0.00	30.060 
13:00	73.3	73.3	73.3	45	50.7	0	3	292	0.00	30.056 
13:05	73.3	73.3	73.3	46	51.3	0	2	292	0.00	30.056 
13:10	73.3	73.3	73.3	44	50.1	0	2	292	0.00	30.056 
13:15	73.2	73.2	73.2	48	52.3	0	3	292	0.00	30.050 
13:20	73.2	73.2	73.2	45	50.6	0	2	292	0.00	30.050 
13:25	73.9	73.9	73.9	45	51.2	0	2	292	0.00	30.050 
13:30	74.4	74.4	74.4	43	50.4	2	6	90	0.00	30.044 
13:35	74.4	74.4	74.4	48	53.4	1	5	112	0.00	30.044 
13:40	74.6	74.6	74.6	44	51.2	1	5	112	0.00	30.044 
13:45	74.7	74.7	74.7	45	51.9	0	3	112	0.00	30.040 
13:50	74.6	74.6	74.6	45	51.8	1	3	112	0.00	30.040 
13:55	74.9	74.9	74.9	44	51.5	0	3	112	0.00	30.040 
14:00	75.3	75.3	77.6	41	50.0	0	1	112	0.00	30.032 
14:05	75.3	75.3	77.5	37	47.2	2	4	112	0.00	30.032 
14:10	75.4	75.4	77.6	41	50.0	0	2	112	0.00	30.032 
14:15	75.3	75.3	77.6	42	50.6	1	3	112	0.00	30.029 
14:20	75.6	75.6	77.8	43	51.5	1	3	45	0.00	30.029 
14:25	76.1	76.1	78.0	46	53.8	0	2	45	0.00	30.029 
14:30	76.3	76.3	78.0	41	50.8	1	3	68	0.00	30.026 
14:35	76.1	76.1	77.8	39	49.3	0	2	68	0.00	30.026 
14:40	75.8	75.8	77.7	39	49.1	1	3	68	0.00	30.026 
14:45	76.1	76.1	77.8	39	49.3	0	2	292	0.00	30.024 
14:50	76.5	76.5	78.0	39	49.7	1	3	112	0.00	30.024 
14:55	76.3	76.3	77.8	38	48.8	1	2	112	0.00	30.024 
15:00	76.5	76.5	78.1	42	51.7	1	5	112	0.00	30.013 
15:05	76.7	76.7	78.0	37	48.4	0	4	112	0.00	30.013 
15:10	76.5	76.5	78.0	39	49.7	1	3	112	0.00	30.013 
15:15	76.8	76.8	78.0	37	48.5	0	1	112	0.00	30.013 
15:20	77.0	77.0	78.0	35	47.2	1	3	112	0.00	30.013 
15:25	76.8	76.8	77.8	33	45.5	1	2	0	0.00	30.013 
15:30	76.8	76.8	77.9	36	47.8	0	2	0	0.00	30.011 
15:35	77.2	77.2	78.3	39	50.3	0	3	0	0.00	30.011 
15:40	77.9	77.9	78.5	37	49.5	0	2	90	0.00	30.011 
15:45	78.6	78.6	78.8	36	49.4	0	2	90	0.00	29.999 
15:50	78.6	78.6	78.8	36	49.4	1	3	90	0.00	29.999 
15:55	78.1	78.1	78.4	34	47.4	1	3	90	0.00	29.999 
16:00	76.7	76.7	77.7	32	44.6	1	3	90	0.00	29.998 
16:05	76.3	76.3	77.6	33	45.1	0	2	90	0.00	29.998 
16:10	76.3	76.3	77.5	32	44.3	0	3	90	0.00	29.998 
16:15	76.1	76.1	77.4	32	44.1	1	3	90	0.00	29.999 
16:20	76.3	76.3	77.6	33	45.1	0	2	90	0.00	29.999 
16:25	76.1	76.1	77.7	36	47.2	0	3	90	0.00	29.999 
16:30	76.5	76.5	77.8	36	47.5	2	5	112	0.00	29.993 
16:35	76.7	76.7	77.8	34	46.2	0	2	112	0.00	29.993 
16:40	76.3	76.3	77.6	33	45.1	0	1	112	0.00	29.993 
16:45	76.0	76.0	77.5	33	44.8	0	0	---	0.00	29.992 
16:50	75.8	75.8	77.6	36	46.9	0	0	---	0.00	29.992 
16:55	76.1	76.1	77.6	35	46.4	0	2	112	0.00	29.992 
17:00	76.5	76.5	77.6	32	44.4	1	3	112	0.00	29.988 
17:05	76.5	76.5	77.7	33	45.2	1	4	112	0.00	29.988 
17:10	76.7	76.7	77.6	31	43.8	1	2	112	0.00	29.988 
17:15	76.7	76.7	77.5	30	42.9	1	4	112	0.00	29.986 
17:20	76.7	76.7	77.6	31	43.8	1	4	90	0.00	29.986 
17:25	76.7	76.7	77.6	31	43.8	0	2	90	0.00	29.986 
17:30	76.7	76.7	77.6	31	43.8	0	3	90	0.00	29.986 
17:35	76.7	76.7	77.6	31	43.8	0	2	90	0.00	29.986 
17:40	76.7	76.7	77.6	31	43.8	0	2	90	0.00	29.986 
17:45	76.7	76.7	77.7	32	44.6	1	2	90	0.00	29.991 
17:50	76.7	76.7	77.5	29	42.0	0	2	90	0.00	29.991 
17:55	76.7	76.7	77.5	30	42.9	0	2	90	0.00	29.991 
18:00	76.7	76.7	77.4	28	41.1	0	1	90	0.00	29.990 
18:05	76.5	76.5	77.3	28	41.0	0	2	90	0.00	29.990 
18:10	76.3	76.3	77.2	28	40.8	0	2	90	0.00	29.990 
18:15	76.5	76.5	77.4	29	41.9	1	2	90	0.00	29.991 
18:20	76.1	76.1	77.3	30	42.4	0	2	90	0.00	29.991 
18:25	76.0	76.0	77.3	31	43.2	0	2	90	0.00	29.991 
18:30	75.6	75.6	77.3	32	43.6	0	1	90	0.00	29.989 
18:35	75.4	75.4	77.1	31	42.6	0	0	---	0.00	29.989 
18:40	75.4	75.4	77.1	31	42.6	0	1	90	0.00	29.989 
18:45	75.4	75.4	77.1	31	42.6	0	0	---	0.00	29.988 
18:50	75.4	75.4	77.0	29	40.9	0	1	90	0.00	29.988 
18:55	75.6	75.6	77.3	33	44.5	0	1	90	0.00	29.988 
19:00	75.6	75.6	77.2	31	42.8	0	1	90	0.00	29.985 
19:05	75.6	75.6	77.3	32	43.6	0	1	90	0.00	29.985 
19:10	75.4	75.4	77.1	30	41.8	0	2	90	0.00	29.985 
19:15	75.3	75.3	77.3	34	45.0	0	1	90	0.00	29.981 
19:20	75.1	75.1	77.3	35	45.6	0	1	90	0.00	29.981 
19:25	74.7	74.7	74.7	35	45.2	0	1	90	0.00	29.981 
19:30	74.6	74.6	74.6	36	45.9	0	1	90	0.00	29.980 
19:35	74.6	74.6	74.6	35	45.1	0	1	90	0.00	29.980 
19:40	74.4	74.4	74.4	35	44.9	0	1	90	0.00	29.980 
19:45	74.4	74.4	74.4	35	44.9	0	2	90	0.00	29.981 
19:50	74.2	74.2	74.2	35	44.8	0	2	90	0.00	29.981 
19:55	73.9	73.9	73.9	34	43.7	0	1	90	0.00	29.981 
20:00	73.7	73.7	73.7	34	43.6	0	1	90	0.00	29.984 
20:05	73.3	73.3	73.3	35	44.0	0	1	90	0.00	29.984 
20:10	73.0	73.0	73.0	35	43.7	0	1	90	0.00	29.984 
20:15	72.8	72.8	72.8	34	42.8	0	1	90	0.00	29.980 
20:20	72.7	72.7	72.7	34	42.7	0	0	---	0.00	29.980 
20:25	72.3	72.3	72.3	35	43.1	0	0	---	0.00	29.980 
20:30	71.8	71.8	71.8	35	42.7	0	0	---	0.00	29.982 
20:35	71.5	71.5	71.5	35	42.4	0	0	---	0.00	29.982 
20:40	70.9	70.9	70.9	36	42.6	0	0	---	0.00	29.982 
20:45	70.4	70.4	70.4	37	42.9	0	0	---	0.00	29.983 
20:50	69.9	69.9	69.9	37	42.4	0	0	---	0.00	29.983 
20:55	69.6	69.6	69.6	38	42.9	0	0	---	0.00	29.983 
21:00	69.1	69.1	69.1	38	42.4	0	0	---	0.00	29.985 
21:05	68.9	68.9	68.9	39	42.9	0	0	---	0.00	29.985 
21:10	68.6	68.6	68.6	39	42.6	0	0	---	0.00	29.985 
21:15	68.1	68.1	68.1	39	42.2	0	0	---	0.00	29.984 
21:20	67.8	67.8	67.8	40	42.6	0	0	---	0.00	29.984 
21:25	67.3	67.3	67.3	41	42.8	0	0	---	0.00	29.984 
21:30	66.8	66.8	66.8	44	44.2	0	0	---	0.00	29.989 
21:35	66.3	66.3	66.3	44	43.7	0	0	---	0.00	29.989 
21:40	65.8	65.8	65.8	43	42.7	0	0	---	0.00	29.989 
21:45	65.3	65.3	65.3	45	43.4	0	0	---	0.00	29.991 
21:50	65.0	65.0	65.0	45	43.1	0	0	---	0.00	29.991 
21:55	64.5	64.5	64.5	45	42.7	0	0	---	0.00	29.991 
22:00	64.2	64.2	64.2	45	42.4	0	0	---	0.00	29.997 
22:05	63.9	63.9	63.9	46	42.7	0	0	---	0.00	29.997 
22:10	63.4	63.4	63.4	48	43.4	0	1	90	0.00	29.997 
22:15	62.9	62.9	62.9	49	43.4	0	0	---	0.00	29.998 
22:20	62.6	62.6	62.6	49	43.2	0	0	---	0.00	29.998 
22:25	62.4	62.4	62.4	50	43.5	0	0	---	0.00	29.998 
22:30	62.4	62.4	62.4	49	43.0	0	0	---	0.00	30.002 
22:35	62.4	62.4	62.4	48	42.4	0	0	---	0.00	30.002 
22:40	62.4	62.4	62.4	47	41.9	0	0	---	0.00	30.002 
22:45	62.6	62.6	62.6	46	41.5	0	0	---	0.00	30.008 
22:50	62.6	62.6	62.6	46	41.5	0	0	---	0.00	30.008 
22:55	62.4	62.4	62.4	46	41.3	0	0	---	0.00	30.008 
23:00	62.3	62.3	62.3	45	40.7	0	0	---	0.00	30.010 
23:05	62.1	62.1	62.1	45	40.5	0	0	---	0.00	30.010 
23:10	61.8	61.8	61.8	48	41.9	0	0	---	0.00	30.010 
23:15	61.5	61.5	61.5	47	41.1	0	0	---	0.00	30.005 
23:20	61.2	61.2	61.2	47	40.8	0	0	---	0.00	30.005 
23:25	60.7	60.7	60.7	48	40.9	0	0	---	0.00	30.005 
23:30	60.4	60.4	60.4	50	41.7	0	0	---	0.00	30.002 
23:35	59.9	59.9	59.9	52	42.2	0	0	---	0.00	30.002 
23:40	59.6	59.6	59.6	54	42.9	0	0	---	0.00	30.002 
23:45	59.2	59.2	59.2	54	42.6	0	0	---	0.00	30.002 
23:50	58.7	58.7	58.7	54	42.1	0	0	---	0.00	30.002 
23:55	58.3	58.3	58.3	54	41.7	0	0	---	0.00	30.002 

CoCoRaHS
IN-AL-39
A2 Web Hosting
Creative Commons License
GoDaddy
search engine by freefind advanced

loaded 2018-11-15 02:58:40 • last modified 2010-11-18 10:43:29
Privacy PolicyDisclaimer
• wx.awcolley.com is powered by PmWiki v.2002016 •
• all content (unless otherwise noted) © 2018 A W Colley